Vielha, Spain
Current Conditions -  °F | °C
As of 11:30 PM on Friday 28 Nov 2014 (Local Time) from LFBT Reporting Station
Clear Clear  
Wind Chill: 48°   Ceiling: Unl
Heat Index: 48°   Visibility: 6mi
Dew Point: 45°   Wind: 2mph
Humidity: 87%   Direction: NA
Pressure: 29.38"   Gusts: NA
Location:  42.7°N, 0.8°E
Report Text: LFBT 282230Z AUTO VRB02KT 9999 NSC 09/07 Q0995
Loading
Personal Weather Stations






























Interactive Weather Map New forecast layout! Learn more

10-Day Weather Forecast

Advertisements
Track Severe Weather on mobile